Time;durP1;ratioP1;P1;durP2;ratioP2;P2;SDS_P1;SDS_P2;PMS_P1;PMS_P2;Temp;Humidity;BMP_temperature;BMP_pressure;BME280_temperature;BME280_humidity;BME280_pressure;Samples;Min_cycle;Max_cycle;Signal;HPM_P1;HPM_P2
2023/04/21 00:01:07;;;;;;;96.97;54.00;;;16.00;64.10;;;;;;4992217;28;90016;-78
2023/04/21 00:03:36;;;;;;;97.07;54.22;;;16.00;64.20;;;;;;4999573;28;89514;-78
2023/04/21 00:06:02;;;;;;;96.15;53.80;;;16.00;64.10;;;;;;5002179;28;89419;-78
2023/04/21 00:08:27;;;;;;;96.75;53.90;;;15.90;64.10;;;;;;5003815;28;91261;-81
2023/04/21 00:10:53;;;;;;;97.53;54.10;;;15.90;64.10;;;;;;5000050;28;91245;-77
2023/04/21 00:13:19;;;;;;;97.97;54.15;;;15.90;64.10;;;;;;5003918;28;89803;-81
2023/04/21 00:15:44;;;;;;;96.68;54.38;;;15.90;64.10;;;;;;5002969;28;90220;-77
2023/04/21 00:18:12;;;;;;;96.25;53.97;;;15.90;64.20;;;;;;5004060;28;91654;-77
2023/04/21 00:20:38;;;;;;;96.70;54.10;;;15.90;64.20;;;;;;4998757;28;89755;-77
2023/04/21 00:23:03;;;;;;;96.13;53.75;;;15.90;64.20;;;;;;5004412;28;89454;-78
2023/04/21 00:25:29;;;;;;;96.20;53.72;;;15.80;64.20;;;;;;5002526;28;90092;-79
2023/04/21 00:27:55;;;;;;;96.20;53.85;;;15.80;64.20;;;;;;5001074;28;92937;-79
2023/04/21 00:30:21;;;;;;;96.93;53.78;;;15.80;64.20;;;;;;5003283;28;93246;-78
2023/04/21 00:32:47;;;;;;;96.22;54.03;;;15.80;64.30;;;;;;5002561;28;90379;-81
2023/04/21 00:35:12;;;;;;;96.75;53.60;;;15.80;64.30;;;;;;4998461;28;89474;-78
2023/04/21 00:37:39;;;;;;;96.10;53.63;;;15.80;64.20;;;;;;4998085;28;89530;-79
2023/04/21 00:40:06;;;;;;;96.43;53.88;;;15.80;64.20;;;;;;4989498;28;89384;-78
2023/04/21 00:42:31;;;;;;;96.70;53.58;;;15.80;64.20;;;;;;5012462;27;90048;-78
2023/04/21 00:44:57;;;;;;;96.95;54.17;;;15.70;64.10;;;;;;4997988;28;89542;-77
2023/04/21 00:47:23;;;;;;;96.55;53.85;;;15.70;64.20;;;;;;5004187;28;92862;-77
2023/04/21 00:49:49;;;;;;;96.45;53.97;;;15.80;64.20;;;;;;5002572;28;89886;-77
2023/04/21 00:52:17;;;;;;;96.88;53.40;;;15.70;64.20;;;;;;4997790;28;89689;-77
2023/04/21 00:54:43;;;;;;;97.53;54.10;;;15.70;64.20;;;;;;5001407;28;89432;-79
2023/04/21 00:57:10;;;;;;;96.10;53.78;;;15.70;64.20;;;;;;4995799;28;90951;-78
2023/04/21 00:59:36;;;;;;;96.40;53.97;;;15.70;64.20;;;;;;5000167;28;93639;-81
2023/04/21 01:02:02;;;;;;;96.97;54.03;;;15.70;64.30;;;;;;5016857;27;89565;-78
2023/04/21 01:04:34;;;;;;;96.55;53.88;;;15.70;64.20;;;;;;4999831;28;89508;-78
2023/04/21 01:07:00;;;;;;;;;;;15.70;64.20;;;;;;4999902;28;89504;-80
2023/04/21 01:09:26;;;;;;;95.93;53.25;;;15.60;64.30;;;;;;5000975;28;89148;-77
2023/04/21 01:12:09;;;;;;;96.07;53.80;;;15.60;64.20;;;;;;4997008;28;89938;-80
2023/04/21 01:14:39;;;;;;;95.78;53.65;;;15.60;64.20;;;;;;4999930;28;89335;-77
2023/04/21 01:17:06;;;;;;;95.57;53.47;;;15.60;64.10;;;;;;4998390;28;91173;-79
2023/04/21 01:19:38;;;;;;;96.35;53.53;;;15.60;64.20;;;;;;5000880;28;90381;-77
2023/04/21 01:22:05;;;;;;;95.30;53.33;;;15.60;64.20;;;;;;4997450;28;90419;-78
2023/04/21 01:24:45;;;;;;;95.15;53.47;;;15.60;64.30;;;;;;4998542;28;89911;-77
2023/04/21 01:27:17;;;;;;;96.03;53.55;;;15.60;64.20;;;;;;4998620;28;90068;-78
2023/04/21 01:29:45;;;;;;;95.90;53.58;;;15.60;64.20;;;;;;5001823;28;89909;-81
2023/04/21 01:32:23;;;;;;;95.90;53.85;;;15.50;64.20;;;;;;5002417;28;89708;-82
2023/04/21 01:34:49;;;;;;;95.55;53.67;;;15.50;64.50;;;;;;4993964;28;89980;-79
2023/04/21 01:37:18;;;;;;;95.78;53.75;;;15.50;64.10;;;;;;4996958;28;89333;-77
2023/04/21 01:39:50;;;;;;;96.72;53.63;;;15.50;64.20;;;;;;4993360;28;89466;-80
2023/04/21 01:42:17;;;;;;;96.28;53.92;;;15.50;64.20;;;;;;4998202;28;90052;-77
2023/04/21 01:44:43;;;;;;;96.40;53.72;;;15.50;64.20;;;;;;4991811;28;89955;-83
2023/04/21 01:47:10;;;;;;;96.07;53.80;;;15.50;64.30;;;;;;4994982;28;90587;-77
2023/04/21 01:49:35;;;;;;;95.68;54.03;;;15.50;64.20;;;;;;5000378;28;92720;-77
2023/04/21 01:52:01;;;;;;;94.97;53.20;;;15.50;64.30;;;;;;4995502;28;89550;-81
2023/04/21 01:54:27;;;;;;;95.18;53.35;;;15.40;64.20;;;;;;4992282;28;90025;-79
2023/04/21 01:56:52;;;;;;;96.28;53.75;;;15.40;64.20;;;;;;4993877;28;90150;-79
2023/04/21 01:59:18;;;;;;;95.68;53.75;;;15.40;64.20;;;;;;4997865;28;93235;-81
2023/04/21 02:01:44;;;;;;;95.78;53.50;;;15.40;64.20;;;;;;4997617;28;89481;-77
2023/04/21 02:04:10;;;;;;;96.25;53.78;;;15.40;64.20;;;;;;4992897;28;88797;-82
2023/04/21 02:06:35;;;;;;;95.85;54.10;;;15.40;64.20;;;;;;4995799;28;90218;-77
2023/04/21 02:09:01;;;;;;;96.07;53.78;;;15.40;64.30;;;;;;5000807;28;90652;-77
2023/04/21 02:11:27;;;;;;;95.28;53.53;;;15.40;64.30;;;;;;4995221;28;91045;-80
2023/04/21 02:13:53;;;;;;;96.35;53.58;;;15.40;64.30;;;;;;4997198;28;89561;-80
2023/04/21 02:16:19;;;;;;;97.60;54.13;;;15.40;64.20;;;;;;4997894;28;94616;-77
2023/04/21 02:18:47;;;;;;;95.80;53.70;;;15.30;64.10;;;;;;4999565;28;89999;-82
2023/04/21 02:21:13;;;;;;;95.63;53.67;;;15.30;64.10;;;;;;4996615;28;90203;-78
2023/04/21 02:23:38;;;;;;;95.80;54.05;;;15.30;64.20;;;;;;5000945;28;89388;-79
2023/04/21 02:26:04;;;;;;;96.45;54.25;;;15.30;64.20;;;;;;4994422;28;90855;-78
2023/04/21 02:28:30;;;;;;;95.82;53.78;;;15.30;64.30;;;;;;5000024;28;93189;-78
2023/04/21 02:30:56;;;;;;;97.40;53.35;;;15.30;64.20;;;;;;4996060;28;90130;-80
2023/04/21 02:33:22;;;;;;;97.72;53.70;;;15.30;64.20;;;;;;4998566;28;89605;-79
2023/04/21 02:35:47;;;;;;;95.70;53.47;;;15.30;64.20;;;;;;4996808;28;90802;-78
2023/04/21 02:38:13;;;;;;;96.00;54.08;;;15.30;64.20;;;;;;4998835;28;93452;-77
2023/04/21 02:40:39;;;;;;;95.72;53.72;;;15.30;64.20;;;;;;4995796;28;89906;-80
2023/04/21 02:43:05;;;;;;;98.03;54.40;;;15.20;64.20;;;;;;4994259;28;89564;-78
2023/04/21 02:45:31;;;;;;;96.25;54.03;;;15.20;64.10;;;;;;4994641;28;89897;-79
2023/04/21 02:47:58;;;;;;;96.80;54.40;;;15.20;64.20;;;;;;4998382;28;90498;-81
2023/04/21 02:50:24;;;;;;;95.85;53.70;;;15.20;64.20;;;;;;4999567;28;89221;-79
2023/04/21 02:52:49;;;;;;;96.93;54.17;;;15.20;64.20;;;;;;5013642;27;88789;-78
2023/04/21 02:55:15;;;;;;;95.47;53.58;;;15.20;64.20;;;;;;4999370;28;93498;-79
2023/04/21 02:57:41;;;;;;;95.03;53.45;;;15.20;64.20;;;;;;4993132;28;90845;-78
2023/04/21 03:00:08;;;;;;;95.68;53.65;;;15.20;64.20;;;;;;4993738;28;90715;-80
2023/04/21 03:02:33;;;;;;;96.00;54.15;;;15.20;64.20;;;;;;5011310;27;90052;-78
2023/04/21 03:04:59;;;;;;;95.82;53.90;;;15.10;64.10;;;;;;4994852;28;90600;-81
2023/04/21 03:07:25;;;;;;;95.82;53.58;;;15.10;64.20;;;;;;4991581;28;89357;-79
2023/04/21 03:09:50;;;;;;;95.60;53.80;;;15.10;64.30;;;;;;4995856;28;89874;-77
2023/04/21 03:12:16;;;;;;;96.43;54.00;;;15.10;64.20;;;;;;4995182;28;89675;-81
2023/04/21 03:14:41;;;;;;;95.78;53.80;;;15.10;64.30;;;;;;5002747;28;89739;-77
2023/04/21 03:17:07;;;;;;;95.47;53.75;;;15.10;64.20;;;;;;4999812;28;92631;-78
2023/04/21 03:19:33;;;;;;;95.80;53.85;;;15.10;64.30;;;;;;4996519;28;89648;-81
2023/04/21 03:21:59;;;;;;;96.00;53.80;;;15.10;64.30;;;;;;4998231;28;89508;-82
2023/04/21 03:24:25;;;;;;;96.10;53.78;;;15.10;64.30;;;;;;5000111;28;93705;-77
2023/04/21 03:26:51;;;;;;;95.85;53.55;;;15.10;64.40;;;;;;5000931;28;90663;-78
2023/04/21 03:29:17;;;;;;;96.72;53.90;;;15.10;64.40;;;;;;4998762;28;89598;-77
2023/04/21 03:31:43;;;;;;;96.28;53.92;;;15.00;64.30;;;;;;4996950;28;89562;-78
2023/04/21 03:34:09;;;;;;;96.05;53.40;;;15.00;64.30;;;;;;4998702;28;89912;-79
2023/04/21 03:36:34;;;;;;;94.97;53.53;;;15.10;64.30;;;;;;5000061;28;92438;-77
2023/04/21 03:39:00;;;;;;;95.47;53.88;;;15.10;64.30;;;;;;5003205;28;89366;-80
2023/04/21 03:41:26;;;;;;;94.40;53.13;;;15.00;64.30;;;;;;4999534;28;89000;-79
2023/04/21 03:43:51;;;;;;;95.45;53.40;;;15.00;64.30;;;;;;4998356;28;90391;-77
2023/04/21 03:46:18;;;;;;;96.00;53.85;;;15.00;64.40;;;;;;5002142;28;92469;-77
2023/04/21 03:48:45;;;;;;;95.53;53.67;;;15.00;64.40;;;;;;4996201;28;90713;-78
2023/04/21 03:51:11;;;;;;;94.95;53.42;;;15.00;64.30;;;;;;5001433;28;89515;-77
2023/04/21 03:53:36;;;;;;;95.57;53.78;;;15.00;64.30;;;;;;4997372;28;93718;-78
2023/04/21 03:56:02;;;;;;;95.70;53.58;;;15.00;64.40;;;;;;4998944;28;95358;-78
2023/04/21 03:58:28;;;;;;;94.72;53.22;;;15.00;64.40;;;;;;4998499;28;90350;-77
2023/04/21 04:00:53;;;;;;;95.15;53.95;;;15.00;64.40;;;;;;4995495;28;89450;-82
2023/04/21 04:03:19;;;;;;;95.78;53.97;;;15.00;64.40;;;;;;5009371;27;94119;-78
2023/04/21 04:05:45;;;;;;;95.85;54.03;;;14.90;64.40;;;;;;4999972;28;89360;-79
2023/04/21 04:08:10;;;;;;;94.93;53.38;;;14.90;64.40;;;;;;5001650;28;89826;-78
2023/04/21 04:10:36;;;;;;;95.63;53.65;;;14.90;64.50;;;;;;5000296;28;89505;-78
2023/04/21 04:13:02;;;;;;;95.28;53.55;;;14.90;64.50;;;;;;4997863;28;91424;-78
2023/04/21 04:15:28;;;;;;;95.05;53.65;;;14.90;64.60;;;;;;5002759;28;90498;-80
2023/04/21 04:17:54;;;;;;;96.00;53.85;;;14.90;64.60;;;;;;4997612;28;90168;-80
2023/04/21 04:20:20;;;;;;;95.60;53.55;;;14.90;64.80;;;;;;5001472;28;89543;-78
2023/04/21 04:22:45;;;;;;;95.18;53.60;;;14.90;64.80;;;;;;4999585;28;92994;-78
2023/04/21 04:25:13;;;;;;;96.40;53.75;;;14.90;64.80;;;;;;5002907;28;90344;-78
2023/04/21 04:27:40;;;;;;;95.78;54.28;;;14.90;64.80;;;;;;4995114;28;89452;-77
2023/04/21 04:30:06;;;;;;;96.28;53.60;;;14.90;64.80;;;;;;4991887;28;89155;-79
2023/04/21 04:32:32;;;;;;;95.55;54.13;;;14.90;64.90;;;;;;4997879;28;92684;-80
2023/04/21 04:34:58;;;;;;;95.57;53.50;;;14.90;64.80;;;;;;4993374;28;90745;-79
2023/04/21 04:37:24;;;;;;;94.95;53.45;;;14.90;64.80;;;;;;5000700;28;90267;-81
2023/04/21 04:39:53;;;;;;;98.18;54.25;;;14.90;64.80;;;;;;4999819;28;89591;-81
2023/04/21 04:42:19;;;;;;;95.10;53.70;;;14.90;64.80;;;;;;4997368;28;94248;-79
2023/04/21 04:44:45;;;;;;;95.22;53.80;;;14.80;64.80;;;;;;5000331;28;93209;-78
2023/04/21 04:47:11;;;;;;;95.63;54.08;;;14.80;64.90;;;;;;4996936;28;89586;-78
2023/04/21 04:49:37;;;;;;;96.50;53.70;;;14.80;64.80;;;;;;4998922;28;89787;-77
2023/04/21 04:52:03;;;;;;;94.80;53.42;;;14.80;64.90;;;;;;5001628;28;94019;-78
2023/04/21 04:54:29;;;;;;;95.75;53.95;;;14.80;64.90;;;;;;5004250;28;89709;-77
2023/04/21 04:56:56;;;;;;;95.57;53.88;;;14.80;64.80;;;;;;5004370;28;89557;-78
2023/04/21 04:59:22;;;;;;;95.60;53.97;;;14.80;64.90;;;;;;5002281;28;89578;-80
2023/04/21 05:01:47;;;;;;;95.20;53.97;;;14.80;65.10;;;;;;5000776;28;91235;-77
2023/04/21 05:04:16;;;;;;;95.85;54.03;;;14.80;65.10;;;;;;5000065;28;90981;-79
2023/04/21 05:06:42;;;;;;;95.43;53.97;;;14.80;65.20;;;;;;4999944;28;89561;-79
2023/04/21 05:09:09;;;;;;;96.13;54.42;;;14.80;65.10;;;;;;4999263;28;89532;-79
2023/04/21 05:11:34;;;;;;;95.25;53.97;;;14.80;65.10;;;;;;5001446;28;89581;-78
2023/04/21 05:14:00;;;;;;;96.13;54.03;;;14.80;65.20;;;;;;4999569;28;89558;-80
2023/04/21 05:16:25;;;;;;;97.57;53.88;;;14.80;65.20;;;;;;5007268;28;89507;-79
2023/04/21 05:18:52;;;;;;;96.22;54.13;;;14.80;65.20;;;;;;5004059;28;88835;-78
2023/04/21 05:21:26;;;;;;;95.50;53.85;;;14.80;65.20;;;;;;4998668;28;92142;-81
2023/04/21 05:23:55;;;;;;;95.80;54.22;;;14.80;65.30;;;;;;4997736;28;90179;-79
2023/04/21 05:26:21;;;;;;;95.50;53.95;;;14.80;65.40;;;;;;4999439;28;90868;-79
2023/04/21 05:28:47;;;;;;;96.53;54.15;;;14.80;65.40;;;;;;5001569;28;89798;-78
2023/04/21 05:31:13;;;;;;;96.78;54.22;;;14.80;65.50;;;;;;4992490;28;89584;-79
2023/04/21 05:33:38;;;;;;;96.50;54.00;;;14.80;65.50;;;;;;5000925;28;91072;-83
2023/04/21 05:36:08;;;;;;;97.93;54.50;;;14.80;65.50;;;;;;4997863;28;90130;-79
2023/04/21 05:38:34;;;;;;;95.82;54.30;;;14.70;65.40;;;;;;4993965;28;90168;-82
2023/04/21 05:41:00;;;;;;;95.95;54.45;;;14.80;65.50;;;;;;4992707;28;90281;-83
2023/04/21 05:43:25;;;;;;;97.60;54.45;;;14.70;66.30;;;;;;4999038;28;89164;-77
2023/04/21 05:45:51;;;;;;;97.32;54.65;;;14.70;65.60;;;;;;4996690;28;92592;-77
2023/04/21 05:48:17;;;;;;;99.18;54.42;;;14.70;65.60;;;;;;5000602;28;89912;-78
2023/04/21 05:50:43;;;;;;;97.65;54.88;;;14.70;66.00;;;;;;4997178;28;91106;-77
2023/04/21 05:53:08;;;;;;;99.80;54.35;;;14.70;66.60;;;;;;5003381;28;91452;-79
2023/04/21 05:55:35;;;;;;;98.90;55.20;;;14.70;66.60;;;;;;4996795;28;90168;-77
2023/04/21 05:58:01;;;;;;;107.25;55.33;;;14.70;66.70;;;;;;5001518;28;89593;-78
2023/04/21 06:00:26;;;;;;;99.75;54.60;;;14.70;66.60;;;;;;4999783;28;93254;-77
2023/04/21 06:02:52;;;;;;;98.47;55.20;;;14.80;66.80;;;;;;4999539;28;89935;-78
2023/04/21 06:05:18;;;;;;;102.57;55.17;;;14.70;66.60;;;;;;4997111;28;89791;-78
2023/04/21 06:07:43;;;;;;;98.85;54.90;;;14.70;66.80;;;;;;4997599;28;88631;-78
2023/04/21 06:10:10;;;;;;;97.68;54.50;;;14.70;67.00;;;;;;5000879;28;90275;-79
2023/04/21 06:12:36;;;;;;;103.00;54.90;;;14.70;66.80;;;;;;4999805;28;93739;-79
2023/04/21 06:15:05;;;;;;;101.47;54.70;;;14.70;67.00;;;;;;5003503;28;92561;-78
2023/04/21 06:17:31;;;;;;;98.28;54.70;;;14.70;67.10;;;;;;4996503;28;91029;-78
2023/04/21 06:19:57;;;;;;;97.95;54.80;;;14.70;67.30;;;;;;4999123;28;93311;-79
2023/04/21 06:22:22;;;;;;;98.60;54.63;;;14.70;67.80;;;;;;5000151;28;92844;-78
2023/04/21 06:24:48;;;;;;;98.15;54.85;;;14.70;68.70;;;;;;4998761;28;89424;-82
2023/04/21 06:27:14;;;;;;;101.30;54.58;;;14.70;69.20;;;;;;5000459;28;89353;-82
2023/04/21 06:29:44;;;;;;;100.90;55.58;;;14.70;68.60;;;;;;5004119;28;94270;-78
2023/04/21 06:32:10;;;;;;;103.35;55.33;;;14.70;68.70;;;;;;4999546;28;92393;-76
2023/04/21 06:34:37;;;;;;;103.63;56.05;;;14.70;69.50;;;;;;5002809;28;89173;-78
2023/04/21 06:37:02;;;;;;;102.50;55.13;;;14.70;69.80;;;;;;5001098;28;89669;-77
2023/04/21 06:39:28;;;;;;;101.78;55.47;;;14.70;69.80;;;;;;5003774;28;93124;-76
2023/04/21 06:41:54;;;;;;;102.35;56.20;;;14.70;69.60;;;;;;4991484;28;90872;-78
2023/04/21 06:44:20;;;;;;;100.15;55.67;;;14.70;69.40;;;;;;4997495;28;92910;-77
2023/04/21 06:46:46;;;;;;;101.82;55.33;;;14.70;69.40;;;;;;4998466;28;89738;-77
2023/04/21 06:49:12;;;;;;;101.57;55.47;;;14.70;69.50;;;;;;4999386;28;93189;-76
2023/04/21 06:51:37;;;;;;;102.88;55.72;;;14.70;69.50;;;;;;4997851;28;89975;-77
2023/04/21 06:54:04;;;;;;;99.97;55.35;;;14.70;69.30;;;;;;5012572;27;90005;-82
2023/04/21 06:56:30;;;;;;;99.43;55.72;;;14.70;69.20;;;;;;4999879;28;93275;-81
2023/04/21 06:58:56;;;;;;;103.75;56.15;;;14.70;69.10;;;;;;4994334;28;90878;-78
2023/04/21 07:01:23;;;;;;;100.97;55.50;;;14.80;69.30;;;;;;4992835;28;92291;-76
2023/04/21 07:03:50;;;;;;;102.47;55.58;;;14.80;69.30;;;;;;4998786;28;90740;-79
2023/04/21 07:06:15;;;;;;;100.90;55.30;;;14.80;69.20;;;;;;5001717;28;89919;-77
2023/04/21 07:08:41;;;;;;;100.50;55.55;;;14.80;69.10;;;;;;4997406;28;92754;-77
2023/04/21 07:11:07;;;;;;;98.57;55.05;;;14.80;69.10;;;;;;5001230;28;92739;-78
2023/04/21 07:13:32;;;;;;;100.03;55.38;;;14.80;69.70;;;;;;4998794;28;91076;-79
2023/04/21 07:15:58;;;;;;;103.35;55.78;;;14.80;69.00;;;;;;4993959;28;89741;-77
2023/04/21 07:18:24;;;;;;;100.90;55.97;;;14.80;68.80;;;;;;4997587;28;89869;-78
2023/04/21 07:20:50;;;;;;;101.75;56.22;;;14.80;68.70;;;;;;5001067;28;93609;-77
2023/04/21 07:23:16;;;;;;;107.85;55.72;;;14.80;68.70;;;;;;5005297;28;89857;-79
2023/04/21 07:25:41;;;;;;;103.68;55.95;;;14.80;69.60;;;;;;4992382;28;89970;-77
2023/04/21 07:28:07;;;;;;;110.25;57.38;;;14.90;69.40;;;;;;4994285;28;90550;-77
2023/04/21 07:30:33;;;;;;;111.03;56.97;;;14.90;69.80;;;;;;4999226;28;94533;-79
2023/04/21 07:32:59;;;;;;;113.30;57.85;;;14.90;69.90;;;;;;4995151;28;89972;-77
2023/04/21 07:35:25;;;;;;;108.32;57.97;;;14.90;70.40;;;;;;4995656;28;92417;-78
2023/04/21 07:37:51;;;;;;;107.65;58.55;;;14.90;70.40;;;;;;4998907;28;92945;-76
2023/04/21 07:40:17;;;;;;;111.15;59.13;;;14.90;70.20;;;;;;4990672;28;90238;-77
2023/04/21 07:42:42;;;;;;;110.75;58.63;;;14.90;70.30;;;;;;4993752;28;90822;-83
2023/04/21 07:45:08;;;;;;;109.32;58.15;;;14.90;70.40;;;;;;5009995;27;92185;-79
2023/04/21 07:47:34;;;;;;;118.10;59.95;;;15.00;70.40;;;;;;4993053;28;93010;-78
2023/04/21 07:50:00;;;;;;;113.40;59.92;;;15.00;70.70;;;;;;4995584;28;90045;-77
2023/04/21 07:52:26;;;;;;;112.93;60.33;;;15.00;70.80;;;;;;4998130;28;90819;-77
2023/04/21 07:54:51;;;;;;;112.82;59.47;;;15.00;70.80;;;;;;4996076;28;91903;-81
2023/04/21 07:57:17;;;;;;;109.28;60.72;;;15.00;70.70;;;;;;4993026;28;93306;-81
2023/04/21 07:59:43;;;;;;;112.90;60.72;;;15.00;70.80;;;;;;4993644;28;92893;-78
2023/04/21 08:02:08;;;;;;;113.70;60.47;;;15.00;70.80;;;;;;4994677;28;90566;-78
2023/04/21 08:04:34;;;;;;;109.57;60.83;;;15.00;70.80;;;;;;4990432;28;89587;-77
2023/04/21 08:07:00;;;;;;;113.35;60.42;;;15.00;70.70;;;;;;4997613;28;94790;-79
2023/04/21 08:09:26;;;;;;;109.40;61.45;;;15.00;70.50;;;;;;4998399;28;89475;-78
2023/04/21 08:11:53;;;;;;;112.05;60.60;;;15.00;69.90;;;;;;4997929;28;89447;-78
2023/04/21 08:14:19;;;;;;;111.93;60.53;;;15.00;69.80;;;;;;4994704;27;90097;-80
2023/04/21 08:16:45;;;;;;;110.53;60.70;;;15.00;70.00;;;;;;4990668;28;92958;-78
2023/04/21 08:19:11;;;;;;;106.72;60.35;;;15.00;70.10;;;;;;4993662;28;93676;-81
2023/04/21 08:21:37;;;;;;;110.00;60.25;;;15.00;70.00;;;;;;4996286;28;89813;-82
2023/04/21 08:24:03;;;;;;;110.82;60.00;;;15.00;70.10;;;;;;4994454;28;90573;-77
2023/04/21 08:26:29;;;;;;;107.30;60.13;;;15.00;70.20;;;;;;5001340;28;93709;-77
2023/04/21 08:28:55;;;;;;;108.95;60.38;;;15.00;70.10;;;;;;5002943;28;90740;-79
2023/04/21 08:31:21;;;;;;;107.57;59.92;;;15.00;69.80;;;;;;5001305;28;89429;-78
2023/04/21 08:33:47;;;;;;;109.63;59.40;;;15.00;69.90;;;;;;5003087;28;94697;-77
2023/04/21 08:36:13;;;;;;;107.70;60.65;;;15.00;69.70;;;;;;5003228;28;90305;-79
2023/04/21 08:38:43;;;;;;;107.18;60.10;;;15.00;69.70;;;;;;5004606;28;92822;-78
2023/04/21 08:41:09;;;;;;;107.93;60.22;;;15.00;69.30;;;;;;5004755;28;93065;-77
2023/04/21 08:43:35;;;;;;;110.32;60.92;;;15.00;69.00;;;;;;5001596;28;89617;-77
2023/04/21 08:46:08;;;;;;;109.07;60.05;;;15.00;69.30;;;;;;4999246;28;94542;-80
2023/04/21 08:48:37;;;;;;;107.50;60.63;;;15.00;69.30;;;;;;5004140;28;93854;-78
2023/04/21 08:51:11;;;;;;;107.88;60.88;;;15.00;69.30;;;;;;5004353;28;90550;-77
2023/04/21 08:53:40;;;;;;;108.45;60.08;;;15.00;69.20;;;;;;5003027;28;92317;-81
2023/04/21 08:56:06;;;;;;;111.15;60.53;;;15.00;69.30;;;;;;5001803;28;94887;-79
2023/04/21 08:58:31;;;;;;;107.78;61.42;;;15.00;69.10;;;;;;5018800;27;92837;-77
2023/04/21 09:00:57;;;;;;;106.15;61.72;;;15.00;68.90;;;;;;5001658;28;89576;-80
2023/04/21 09:03:27;;;;;;;107.57;60.63;;;15.00;69.10;;;;;;5000704;28;90008;-77
2023/04/21 09:06:07;;;;;;;107.53;60.63;;;15.00;68.80;;;;;;4997633;28;95304;-82
2023/04/21 09:08:36;;;;;;;107.40;60.58;;;15.00;68.80;;;;;;5003071;28;91657;-79
2023/04/21 09:11:02;;;;;;;104.63;59.95;;;15.00;68.80;;;;;;4997508;28;89652;-78
2023/04/21 09:13:33;;;;;;;107.35;62.25;;;15.00;68.60;;;;;;5002372;28;90360;-79
2023/04/21 09:16:00;;;;;;;104.68;60.08;;;15.00;68.00;;;;;;5000761;28;92746;-81
2023/04/21 09:18:33;;;;;;;111.32;60.60;;;15.00;68.00;;;;;;5001947;28;90086;-77
2023/04/21 09:21:05;;;;;;;107.72;60.35;;;15.00;68.20;;;;;;5000149;28;89915;-79
2023/04/21 09:23:30;;;;;;;104.30;60.45;;;15.00;68.30;;;;;;5001429;28;89131;-77
2023/04/21 09:25:56;;;;;;;106.65;60.42;;;15.00;68.20;;;;;;4995497;28;93082;-78
2023/04/21 09:28:22;;;;;;;104.10;59.55;;;15.00;68.20;;;;;;4998527;28;89686;-79
2023/04/21 09:30:55;;;;;;;103.97;59.50;;;15.00;68.20;;;;;;5004185;28;91592;-76
2023/04/21 09:33:21;;;;;;;103.28;59.63;;;15.00;68.30;;;;;;4998669;28;90309;-78
2023/04/21 09:35:47;;;;;;;104.70;59.10;;;15.00;68.30;;;;;;4999463;28;91778;-78
2023/04/21 09:38:13;;;;;;;105.72;59.17;;;15.00;68.30;;;;;;4999789;28;93135;-79
2023/04/21 09:40:39;;;;;;;106.78;58.88;;;15.00;68.30;;;;;;4999390;28;90187;-77
2023/04/21 09:43:05;;;;;;;106.13;59.05;;;15.00;68.30;;;;;;4998016;28;89438;-80
2023/04/21 09:45:32;;;;;;;102.00;58.42;;;15.10;68.40;;;;;;4999462;28;90964;-79
2023/04/21 09:48:00;;;;;;;103.72;58.28;;;15.10;68.60;;;;;;4998843;28;90746;-78
2023/04/21 09:50:26;;;;;;;105.45;58.55;;;15.10;68.50;;;;;;4999144;28;89737;-77
2023/04/21 09:52:55;;;;;;;101.50;58.17;;;15.10;68.60;;;;;;5000843;28;89989;-78
2023/04/21 09:55:30;;;;;;;104.60;58.08;;;15.10;68.50;;;;;;4996701;28;92845;-77
2023/04/21 09:58:01;;;;;;;102.80;58.10;;;15.10;68.50;;;;;;4999367;28;91374;-78
2023/04/21 10:00:28;;;;;;;103.45;58.33;;;15.10;68.50;;;;;;5002767;28;90041;-77
2023/04/21 10:02:56;;;;;;;107.60;57.97;;;15.10;68.40;;;;;;4999468;28;89809;-77
2023/04/21 10:05:21;;;;;;;102.32;57.58;;;15.10;68.40;;;;;;5004973;28;90598;-77
2023/04/21 10:07:48;;;;;;;101.88;56.72;;;15.10;68.40;;;;;;5000459;28;90305;-81
2023/04/21 10:10:30;;;;;;;100.68;56.40;;;15.10;68.10;;;;;;4997879;28;90629;-84
2023/04/21 10:12:57;;;;;;;101.60;56.60;;;15.20;68.40;;;;;;4996750;28;91535;-82
2023/04/21 10:15:39;;;;;;;104.05;56.33;;;15.30;68.50;;;;;;5001096;28;90796;-81
2023/04/21 10:18:22;;;;;;;102.43;56.63;;;15.30;68.60;;;;;;4996972;28;92488;-82
2023/04/21 10:21:00;;;;;;;102.00;56.58;;;15.20;68.40;;;;;;4997306;28;91266;-82
2023/04/21 10:23:27;;;;;;;99.85;56.15;;;15.20;68.60;;;;;;5002320;28;90139;-81
2023/04/21 10:25:53;;;;;;;101.65;56.60;;;15.20;68.80;;;;;;4998125;28;92813;-81
2023/04/21 10:28:19;;;;;;;102.53;56.25;;;15.20;68.80;;;;;;4998569;28;93415;-85
2023/04/21 10:30:45;;;;;;;104.65;56.53;;;15.20;68.90;;;;;;5003245;28;89564;-78
2023/04/21 10:33:10;;;;;;;107.47;57.50;;;15.20;69.60;;;;;;4998909;28;92747;-84
2023/04/21 10:36:00;;;;;;;101.03;56.50;;;15.30;71.80;;;;;;5014275;27;92627;-78
2023/04/21 10:38:40;;;;;;;102.65;56.42;;;15.20;72.10;;;;;;4999347;28;90081;-78
2023/04/21 10:41:29;;;;;;;104.45;56.88;;;15.20;72.80;;;;;;5000674;28;89519;-78
2023/04/21 10:44:11;;;;;;;102.90;56.45;;;15.20;73.20;;;;;;5002016;28;92488;-80
2023/04/21 10:46:44;;;;;;;100.78;56.40;;;15.30;74.70;;;;;;4997305;28;92222;-78
2023/04/21 10:49:20;;;;;;;100.88;56.35;;;15.30;74.50;;;;;;5000667;28;91339;-78
2023/04/21 10:51:58;;;;;;;107.30;56.67;;;15.30;74.50;;;;;;5016597;27;90175;-79
2023/04/21 10:54:25;;;;;;;106.20;56.50;;;15.30;72.90;;;;;;4994716;28;89896;-78
2023/04/21 10:56:52;;;;;;;103.63;56.17;;;15.40;72.60;;;;;;5000099;28;93617;-78
2023/04/21 10:59:19;;;;;;;110.68;55.80;;;15.40;72.30;;;;;;5001895;28;93121;-77
2023/04/21 11:01:44;;;;;;;103.45;56.00;;;15.40;72.50;;;;;;4998400;28;89794;-78
2023/04/21 11:04:20;;;;;;;104.18;56.17;;;15.40;71.70;;;;;;4994610;28;88730;-77
2023/04/21 11:07:16;;;;;;;101.43;55.88;;;15.40;71.50;;;;;;4994666;28;93415;-77
2023/04/21 11:09:43;;;;;;;103.47;55.53;;;15.50;71.20;;;;;;4994818;27;94423;-77
2023/04/21 11:12:14;;;;;;;102.32;56.33;;;15.50;71.30;;;;;;4995731;28;93996;-77
2023/04/21 11:14:42;;;;;;;103.55;56.17;;;15.50;71.00;;;;;;5001261;28;89963;-78
2023/04/21 11:17:22;;;;;;;104.78;54.85;;;15.60;71.10;;;;;;4995533;28;89734;-77
2023/04/21 11:19:53;;;;;;;99.35;54.80;;;15.60;70.90;;;;;;4997334;28;92555;-77
2023/04/21 11:22:20;;;;;;;99.93;55.40;;;15.60;71.30;;;;;;4999758;28;89566;-80
2023/04/21 11:24:49;;;;;;;102.75;55.20;;;15.60;71.40;;;;;;5003995;28;89935;-78
2023/04/21 11:27:16;;;;;;;104.53;55.00;;;15.60;71.10;;;;;;4994874;28;93012;-79
2023/04/21 11:29:44;;;;;;;105.55;55.65;;;15.60;70.90;;;;;;4998174;28;92672;-77
2023/04/21 11:32:10;;;;;;;99.90;55.17;;;15.60;70.70;;;;;;5000156;28;91444;-78
2023/04/21 11:34:37;;;;;;;100.53;55.15;;;15.60;70.70;;;;;;5006099;28;90163;-79
2023/04/21 11:37:03;;;;;;;101.00;55.15;;;15.70;70.70;;;;;;4999794;28;94427;-77
2023/04/21 11:39:29;;;;;;;102.53;55.63;;;15.70;70.70;;;;;;5001911;28;97071;-78
2023/04/21 11:41:55;;;;;;;103.57;54.75;;;15.70;71.00;;;;;;5004620;28;89918;-77
2023/04/21 11:44:34;;;;;;;102.13;54.92;;;15.70;71.60;;;;;;5000250;28;89909;-77
2023/04/21 11:47:11;;;;;;;101.07;54.55;;;15.70;73.00;;;;;;4992427;28;93055;-78
2023/04/21 11:49:47;;;;;;;107.93;55.55;;;15.70;73.90;;;;;;4992187;28;92651;-81
2023/04/21 11:52:25;;;;;;;102.88;55.38;;;15.80;75.60;;;;;;4995989;28;92152;-79
2023/04/21 11:55:10;;;;;;;102.88;56.05;;;15.70;75.90;;;;;;4997492;28;88764;-77
2023/04/21 11:57:38;;;;;;;104.15;56.90;;;15.70;76.90;;;;;;4993377;28;90108;-77
2023/04/21 12:00:05;;;;;;;103.22;56.92;;;15.70;77.70;;;;;;4998792;28;92951;-76
2023/04/21 12:02:32;;;;;;;102.55;56.30;;;15.70;77.90;;;;;;4997655;28;90695;-77
2023/04/21 12:04:59;;;;;;;104.25;57.10;;;15.80;77.80;;;;;;4992160;28;89533;-77
2023/04/21 12:07:25;;;;;;;103.32;56.92;;;15.80;78.60;;;;;;4999150;27;92175;-81
2023/04/21 12:09:51;;;;;;;105.05;56.92;;;15.80;78.90;;;;;;4994683;28;92900;-78
2023/04/21 12:12:17;;;;;;;107.95;57.08;;;15.80;78.90;;;;;;4995342;28;90237;-78
2023/04/21 12:14:44;;;;;;;104.38;57.15;;;15.80;79.20;;;;;;4993906;28;90556;-76
2023/04/21 12:17:15;;;;;;;105.07;56.85;;;15.90;79.10;;;;;;4996848;28;93218;-78
2023/04/21 12:19:42;;;;;;;105.80;57.17;;;15.90;79.20;;;;;;4993639;28;92498;-78
2023/04/21 12:22:09;;;;;;;104.20;56.70;;;15.90;79.30;;;;;;4997662;28;92279;-78
2023/04/21 12:24:36;;;;;;;105.20;56.80;;;15.90;79.50;;;;;;4995842;28;92363;-77